This is the latest recevied weather packets stored in our database for station/object SR9SMR. If no packets are shown the sender has not sent any weather packets the latest 1 day(s).
| Time | Temp. | Humidity | Pressure | Rain* | Wind** | Luminosity | Snow |
|---|---|---|---|---|---|---|---|
| 1777968597 | 16.11° C | 100% | 896.3 hPa | - | 13.41 m/s, 215° | - | - |
| 1777968534 | 16.11° C | 100% | 896.2 hPa | - | 13.86 m/s, 215° | - | - |
| 1777968477 | 16.11° C | 100% | 896.2 hPa | - | 13.41 m/s, 218° | - | - |
| 1777968356 | 16.11° C | 100% | 896.5 hPa | - | 12.07 m/s, 220° | - | - |
| 1777968231 | 16.11° C | 100% | 896.9 hPa | - | 11.18 m/s, 212° | - | - |
| 1777968114 | 16.11° C | 100% | 896.5 hPa | - | 12.96 m/s, 213° | - | - |
| 1777967993 | 15.56° C | 100% | 896.1 hPa | - | 12.52 m/s, 221° | - | - |
| 1777967928 | 15.56° C | 100% | 896.2 hPa | - | 12.52 m/s, 218° | - | - |
| 1777967872 | 15.56° C | 100% | 896.2 hPa | - | 12.52 m/s, 217° | - | - |
| 1777967621 | 16.11° C | 100% | 896.1 hPa | - | 12.52 m/s, 214° | - | - |
| 1777967477 | 15.56° C | 100% | 896.3 hPa | - | 11.62 m/s, 219° | - | - |
| 1777967173 | 16.11° C | 100% | 896.8 hPa | - | 10.73 m/s, 220° | - | - |
| 1777967084 | 16.11° C | 100% | 896.8 hPa | - | 10.28 m/s, 219° | - | - |
| 1777966865 | 16.11° C | 100% | 896.7 hPa | - | 10.28 m/s, 212° | - | - |
| 1777966560 | 16.11° C | 100% | 896.5 hPa | - | 10.73 m/s, 207° | - | - |
| 1777966253 | 15.56° C | 100% | 896.6 hPa | - | 12.07 m/s, 213° | - | - |
| 1777966121 | 15.56° C | 100% | 896.4 hPa | - | 11.62 m/s, 222° | - | - |
| 1777965924 | 15.56° C | 100% | 896.4 hPa | - | 11.62 m/s, 217° | - | - |
| 1777965619 | 15.56° C | 100% | 896.6 hPa | - | 12.07 m/s, 208° | - | - |
| 1777965360 | 15.56° C | 100% | 896.9 hPa | - | 11.18 m/s, 210° | - | - |
| 1777965054 | 15.56° C | 100% | 896.6 hPa | - | 12.07 m/s, 213° | - | - |
| 1777964934 | 15.56° C | 100% | 896.5 hPa | - | 12.52 m/s, 216° | - | - |
| 1777964813 | 15.56° C | 100% | 896.6 hPa | - | 12.52 m/s, 220° | - | - |
| 1777964750 | 15.56° C | 100% | 896.7 hPa | - | 12.52 m/s, 220° | - | - |
| 1777964526 | 15.56° C | 100% | 897 hPa | - | 12.52 m/s, 221° | - | - |
* Rain since midnight (hover to see other rain measurements)
** Current wind speed in m/s (hover to see current wind gust speed)